Time;durP1;ratioP1;P1;durP2;ratioP2;P2;SDS_P1;SDS_P2;PMS_P1;PMS_P2;Temp;Humidity;BMP_temperature;BMP_pressure;BME280_temperature;BME280_humidity;BME280_pressure;Samples;Min_cycle;Max_cycle;Signal;HPM_P1;HPM_P2
2020/12/10 00:00:17;;;;;;;10.20;9.20;;;25.50;63.30;;;;;;5006386;28;20235;-62
2020/12/10 00:02:47;;;;;;;11.75;10.32;;;25.50;63.30;;;;;;5008684;28;20748;-64
2020/12/10 00:05:18;;;;;;;11.23;10.13;;;25.50;62.80;;;;;;5007080;28;20249;-63
2020/12/10 00:07:51;;;;;;;12.50;11.20;;;25.60;62.80;;;;;;5001469;28;20234;-62
2020/12/10 00:10:21;;;;;;;11.70;10.50;;;25.60;62.50;;;;;;5012908;28;20235;-62
2020/12/10 00:12:52;;;;;;;13.38;11.77;;;25.60;62.40;;;;;;5012344;28;20309;-62
2020/12/10 00:15:24;;;;;;;12.52;11.20;;;25.60;62.20;;;;;;5012598;28;20706;-62
2020/12/10 00:17:54;;;;;;;12.18;10.63;;;25.60;62.00;;;;;;5009209;28;20643;-62
2020/12/10 00:20:25;;;;;;;14.18;11.18;;;25.60;62.00;;;;;;5012012;28;20285;-62
2020/12/10 00:22:57;;;;;;;15.02;11.40;;;25.60;61.90;;;;;;5011064;28;20227;-62
2020/12/10 00:25:27;;;;;;;12.48;11.27;;;25.70;61.90;;;;;;5010916;28;20738;-63
2020/12/10 00:27:58;;;;;;;12.38;11.07;;;25.70;61.90;;;;;;5009307;28;20242;-63
2020/12/10 00:30:28;;;;;;;12.65;11.35;;;25.80;62.00;;;;;;5011461;28;20245;-62
2020/12/10 00:32:59;;;;;;;14.00;12.30;;;25.80;62.30;;;;;;5011980;28;20238;-63
2020/12/10 00:35:30;;;;;;;13.68;12.32;;;25.80;62.30;;;;;;5011469;28;20234;-62
2020/12/10 00:38:02;;;;;;;12.43;11.25;;;25.90;62.30;;;;;;5009726;28;20245;-63
2020/12/10 00:40:33;;;;;;;12.95;11.63;;;25.90;62.10;;;;;;5011683;28;20272;-63
2020/12/10 00:43:03;;;;;;;12.77;11.55;;;26.00;62.20;;;;;;5003080;28;20235;-63
2020/12/10 00:45:34;;;;;;;13.10;11.70;;;26.00;62.10;;;;;;4991030;28;20232;-63
2020/12/10 00:48:05;;;;;;;13.55;12.05;;;26.10;62.20;;;;;;5000117;28;20239;-63
2020/12/10 00:50:35;;;;;;;16.23;12.20;;;26.10;62.40;;;;;;4998887;28;20251;-63
2020/12/10 00:53:07;;;;;;;14.65;13.20;;;26.20;62.40;;;;;;5005728;28;20247;-63
2020/12/10 00:55:46;;;;;;;13.88;12.52;;;26.30;62.40;;;;;;5007547;28;20234;-63
2020/12/10 00:58:17;;;;;;;13.93;12.52;;;26.30;62.40;;;;;;4995013;28;20235;-63
2020/12/10 01:00:53;;;;;;;16.33;14.60;;;26.40;62.30;;;;;;4989948;28;20234;-62
2020/12/10 01:03:24;;;;;;;16.15;14.05;;;26.50;62.10;;;;;;5012528;28;20238;-62
2020/12/10 01:05:54;;;;;;;14.52;13.02;;;26.50;61.90;;;;;;5012081;28;20234;-63
2020/12/10 01:08:26;;;;;;;16.45;14.40;;;26.60;62.00;;;;;;5010411;28;20254;-63
2020/12/10 01:10:57;;;;;;;15.48;13.88;;;26.70;62.10;;;;;;5009468;28;20242;-63
2020/12/10 01:13:29;;;;;;;15.13;13.60;;;26.80;62.40;;;;;;5011958;28;20239;-63
2020/12/10 01:16:00;;;;;;;13.13;11.80;;;26.80;61.50;;;;;;5011452;28;20235;-63
2020/12/10 01:18:31;;;;;;;14.90;13.40;;;26.90;61.30;;;;;;4999668;28;20706;-63
2020/12/10 01:21:02;;;;;;;13.45;12.05;;;27.00;61.00;;;;;;5010657;28;20227;-63
2020/12/10 01:23:33;;;;;;;13.70;12.30;;;27.10;60.80;;;;;;5010261;28;20239;-63
2020/12/10 01:26:04;;;;;;;15.23;13.75;;;27.20;60.20;;;;;;5011645;28;20626;-63
2020/12/10 01:28:35;;;;;;;13.43;12.07;;;27.20;59.60;;;;;;5011736;28;20227;-63
2020/12/10 01:31:05;;;;;;;13.52;11.45;;;27.30;59.70;;;;;;5009092;28;20305;-63
2020/12/10 01:33:36;;;;;;;13.60;12.27;;;27.40;59.70;;;;;;5010781;28;20739;-63
2020/12/10 01:36:06;;;;;;;15.07;13.48;;;27.50;59.50;;;;;;5010971;28;20642;-63
2020/12/10 01:38:38;;;;;;;14.20;12.88;;;27.60;59.40;;;;;;5011674;28;20293;-63
2020/12/10 01:41:09;;;;;;;13.98;12.05;;;27.70;59.10;;;;;;5009713;28;20235;-63
2020/12/10 01:43:39;;;;;;;13.05;11.68;;;27.80;59.20;;;;;;5024595;28;20238;-63
2020/12/10 01:46:10;;;;;;;14.00;12.50;;;27.90;59.00;;;;;;5031655;28;20226;-63
2020/12/10 01:48:43;;;;;;;13.35;11.82;;;28.00;58.80;;;;;;5014745;28;20270;-63
2020/12/10 01:51:14;;;;;;;13.20;11.90;;;28.00;58.80;;;;;;5007373;28;20231;-63
2020/12/10 01:53:45;;;;;;;12.98;11.68;;;28.20;58.80;;;;;;5006683;28;20686;-63
2020/12/10 01:56:17;;;;;;;13.45;12.07;;;28.20;58.60;;;;;;5002995;28;20227;-62
2020/12/10 01:58:48;;;;;;;14.10;12.65;;;28.30;58.50;;;;;;5009854;28;20231;-62
2020/12/10 02:01:19;;;;;;;13.45;12.15;;;28.40;58.30;;;;;;5009173;28;20280;-61
2020/12/10 02:03:49;;;;;;;15.63;14.02;;;28.50;57.80;;;;;;5010028;28;20228;-62
2020/12/10 02:06:20;;;;;;;14.43;12.93;;;28.60;57.10;;;;;;5011088;28;20270;-62
2020/12/10 02:08:51;;;;;;;13.75;12.43;;;28.70;56.80;;;;;;5005941;28;20230;-63
2020/12/10 02:11:24;;;;;;;13.50;12.18;;;28.80;56.60;;;;;;5008750;28;20318;-62
2020/12/10 02:13:55;;;;;;;13.60;12.30;;;28.80;56.60;;;;;;5010227;28;20306;-62
2020/12/10 02:16:26;;;;;;;14.38;13.05;;;29.00;56.60;;;;;;5010667;28;20242;-62
2020/12/10 02:18:57;;;;;;;15.55;13.90;;;29.00;56.40;;;;;;5008444;28;20227;-62
2020/12/10 02:21:27;;;;;;;14.60;13.20;;;29.10;55.90;;;;;;5006263;28;20245;-62
2020/12/10 02:23:59;;;;;;;14.32;12.85;;;29.10;55.90;;;;;;5002562;28;20318;-62
2020/12/10 02:26:30;;;;;;;14.73;13.40;;;29.20;55.40;;;;;;5007866;28;20259;-61
2020/12/10 02:29:00;;;;;;;14.43;12.93;;;29.30;55.50;;;;;;4976565;28;20242;-61
2020/12/10 02:31:32;;;;;;;15.40;13.82;;;29.30;55.50;;;;;;5009056;28;20285;-61
2020/12/10 02:34:04;;;;;;;15.75;13.27;;;29.40;55.50;;;;;;4985776;28;20297;-61
2020/12/10 02:36:35;;;;;;;14.02;12.73;;;29.50;55.30;;;;;;5012402;28;20231;-60
2020/12/10 02:39:08;;;;;;;14.27;12.88;;;29.50;55.40;;;;;;4996423;28;20655;-61
2020/12/10 02:42:07;;;;;;;13.68;12.38;;;29.60;54.80;;;;;;5008091;28;20251;-61
2020/12/10 02:44:38;;;;;;;14.05;12.75;;;29.70;54.90;;;;;;5010634;28;20230;-62
2020/12/10 02:47:08;;;;;;;15.00;13.55;;;29.80;54.80;;;;;;5012119;28;20289;-61
2020/12/10 02:49:39;;;;;;;14.95;13.35;;;29.90;54.40;;;;;;5006483;28;20236;-61
2020/12/10 02:52:10;;;;;;;13.35;12.13;;;29.90;54.40;;;;;;5008509;28;20223;-61
2020/12/10 02:54:41;;;;;;;13.98;12.60;;;30.00;54.30;;;;;;5008158;28;20331;-59
2020/12/10 02:57:12;;;;;;;15.73;14.10;;;30.10;53.90;;;;;;5002573;28;20265;-61
2020/12/10 02:59:42;;;;;;;14.45;12.50;;;30.20;53.60;;;;;;5000548;28;20235;-61
2020/12/10 03:02:13;;;;;;;13.55;11.82;;;30.30;53.50;;;;;;5008898;28;20667;-61
2020/12/10 03:04:43;;;;;;;13.00;11.68;;;30.30;53.70;;;;;;4989492;28;20567;-61
2020/12/10 03:07:14;;;;;;;13.55;12.27;;;30.40;53.50;;;;;;4998417;28;20235;-59
2020/12/10 03:09:45;;;;;;;13.52;12.15;;;30.40;53.30;;;;;;4994281;28;20290;-61
2020/12/10 03:12:16;;;;;;;12.95;11.35;;;30.50;53.10;;;;;;5002817;28;20619;-59
2020/12/10 03:14:47;;;;;;;14.15;12.68;;;30.60;53.20;;;;;;5001563;28;20706;-60
2020/12/10 03:17:17;;;;;;;13.50;12.18;;;30.70;53.10;;;;;;5009742;28;20247;-61
2020/12/10 03:19:48;;;;;;;12.68;11.50;;;30.70;53.10;;;;;;5009609;28;20308;-61
2020/12/10 03:22:19;;;;;;;12.65;11.45;;;30.80;53.30;;;;;;5010953;28;20772;-60
2020/12/10 03:24:51;;;;;;;13.38;12.00;;;30.90;53.20;;;;;;5007233;28;20834;-61
2020/12/10 03:27:22;;;;;;;12.43;11.13;;;31.00;53.00;;;;;;5008590;28;20235;-62
2020/12/10 03:29:52;;;;;;;12.82;11.52;;;31.00;52.80;;;;;;5005153;28;20231;-61
2020/12/10 03:32:23;;;;;;;11.93;10.77;;;31.10;52.40;;;;;;5004336;28;20235;-63
2020/12/10 03:34:55;;;;;;;11.07;9.93;;;31.20;52.10;;;;;;4996872;28;20255;-62
2020/12/10 03:37:25;;;;;;;11.48;10.48;;;31.20;51.80;;;;;;5009831;28;20235;-62
2020/12/10 03:39:57;;;;;;;12.70;11.40;;;31.30;51.70;;;;;;5007128;28;20674;-62
2020/12/10 03:42:28;;;;;;;11.70;10.70;;;31.30;51.30;;;;;;4985668;28;20342;-63
2020/12/10 03:44:59;;;;;;;12.25;11.10;;;31.50;50.90;;;;;;5005243;28;20237;-63
2020/12/10 03:47:30;;;;;;;10.15;9.20;;;31.50;50.50;;;;;;5000622;28;20263;-63
2020/12/10 03:50:02;;;;;;;14.70;11.00;;;31.60;50.80;;;;;;4998012;28;20223;-63
2020/12/10 03:52:33;;;;;;;13.05;11.85;;;31.60;50.80;;;;;;5006161;28;20227;-63
2020/12/10 03:55:05;;;;;;;13.00;11.75;;;31.70;50.10;;;;;;5002727;28;20230;-63
2020/12/10 03:57:35;;;;;;;12.05;10.95;;;31.70;50.10;;;;;;5009616;28;20242;-63
2020/12/10 04:00:06;;;;;;;10.98;9.98;;;31.80;49.70;;;;;;5008792;28;20314;-63
2020/12/10 04:02:36;;;;;;;10.20;9.20;;;31.80;49.70;;;;;;5007257;28;20582;-63
2020/12/10 04:05:07;;;;;;;10.32;9.43;;;31.90;49.90;;;;;;4988410;28;20242;-63
2020/12/10 04:07:37;;;;;;;12.05;10.48;;;31.90;49.20;;;;;;4990346;28;20342;-63
2020/12/10 04:10:10;;;;;;;10.90;9.90;;;32.00;49.10;;;;;;4957520;28;20323;-63
2020/12/10 04:12:40;;;;;;;10.57;9.57;;;32.00;48.90;;;;;;4962473;28;20271;-63
2020/12/10 04:15:11;;;;;;;10.88;9.88;;;32.10;49.20;;;;;;4964505;28;20256;-64
2020/12/10 04:17:42;;;;;;;11.25;10.15;;;32.10;49.00;;;;;;4966013;28;20241;-63
2020/12/10 04:20:12;;;;;;;10.77;9.52;;;32.20;48.80;;;;;;4957264;28;20242;-63
2020/12/10 04:22:43;;;;;;;10.85;9.75;;;32.30;48.90;;;;;;4958613;28;20236;-63
2020/12/10 04:25:14;;;;;;;9.55;8.55;;;32.30;49.00;;;;;;4966118;28;20688;-63
2020/12/10 04:27:45;;;;;;;11.43;10.30;;;32.40;48.90;;;;;;4966620;28;20258;-63
2020/12/10 04:30:20;;;;;;;10.57;9.45;;;32.40;48.20;;;;;;4966559;28;20240;-63
2020/12/10 04:32:51;;;;;;;10.80;9.73;;;32.50;47.80;;;;;;4964759;28;20385;-63
2020/12/10 04:35:22;;;;;;;10.57;9.57;;;32.60;47.80;;;;;;4983464;28;20236;-63
2020/12/10 04:37:53;;;;;;;9.30;8.50;;;32.60;47.00;;;;;;4996293;28;20231;-63
2020/12/10 04:40:25;;;;;;;10.25;9.15;;;32.70;47.30;;;;;;5006118;28;20234;-64
2020/12/10 04:42:59;;;;;;;11.50;10.05;;;32.70;47.30;;;;;;5009541;28;20242;-63
2020/12/10 04:45:30;;;;;;;12.73;10.82;;;32.80;47.60;;;;;;5008057;28;20243;-63
2020/12/10 04:48:00;;;;;;;11.20;10.10;;;32.80;47.10;;;;;;5008402;28;20707;-63
2020/12/10 04:50:34;;;;;;;10.68;9.77;;;32.80;47.40;;;;;;5006232;28;20703;-63
2020/12/10 04:53:05;;;;;;;11.73;10.60;;;32.90;47.30;;;;;;5009666;28;20877;-63
2020/12/10 04:55:36;;;;;;;11.63;10.52;;;33.00;46.80;;;;;;5007836;28;20265;-63
2020/12/10 04:58:07;;;;;;;12.75;11.43;;;33.00;47.00;;;;;;4993568;28;20239;-63
2020/12/10 05:00:37;;;;;;;11.70;10.60;;;33.00;46.60;;;;;;5011005;28;20227;-63
2020/12/10 05:03:08;;;;;;;15.27;13.88;;;33.10;46.50;;;;;;5008337;28;20706;-63
2020/12/10 05:05:39;;;;;;;18.92;17.02;;;33.20;48.10;;;;;;5011925;28;20238;-63
2020/12/10 05:08:09;;;;;;;16.15;14.45;;;33.20;49.50;;;;;;5008528;28;20235;-63
2020/12/10 05:10:50;;;;;;;20.55;16.48;;;33.20;49.20;;;;;;5008437;28;20263;-63
2020/12/10 05:13:20;;;;;;;15.43;14.00;;;33.20;49.50;;;;;;5009357;28;20227;-63
2020/12/10 05:15:51;;;;;;;17.52;15.82;;;33.10;49.60;;;;;;5007717;28;20235;-63
2020/12/10 05:18:22;;;;;;;16.67;15.07;;;33.10;49.80;;;;;;5003196;28;20318;-64
2020/12/10 05:20:52;;;;;;;17.08;15.38;;;33.10;49.80;;;;;;4996861;28;20231;-63
2020/12/10 05:23:34;;;;;;;17.35;15.60;;;33.10;49.70;;;;;;5008678;28;20667;-63
2020/12/10 05:26:06;;;;;;;16.60;14.88;;;33.20;50.30;;;;;;5011123;28;20761;-63
2020/12/10 05:28:47;;;;;;;19.00;16.65;;;33.10;50.10;;;;;;5010999;28;20227;-63
2020/12/10 05:31:18;;;;;;;19.40;17.23;;;33.20;50.20;;;;;;5000321;28;20230;-63
2020/12/10 05:33:56;;;;;;;16.08;14.65;;;33.20;50.30;;;;;;5005643;28;20239;-63
2020/12/10 05:36:27;;;;;;;18.02;16.33;;;33.20;49.80;;;;;;5009471;28;20273;-63
2020/12/10 05:39:02;;;;;;;19.77;17.88;;;33.20;49.50;;;;;;5012929;28;20227;-63
2020/12/10 05:41:34;;;;;;;18.10;16.30;;;33.20;48.70;;;;;;5011448;28;20238;-63
2020/12/10 05:44:15;;;;;;;21.55;17.63;;;33.10;49.30;;;;;;5006051;28;20235;-63
2020/12/10 05:46:46;;;;;;;18.10;16.42;;;33.10;50.40;;;;;;5007002;28;20231;-63
2020/12/10 05:49:16;;;;;;;18.25;16.45;;;33.00;50.20;;;;;;4978164;28;20289;-63
2020/12/10 05:51:47;;;;;;;19.85;16.90;;;33.00;49.80;;;;;;5005699;28;20227;-63
2020/12/10 05:54:18;;;;;;;19.33;17.63;;;33.00;50.00;;;;;;5010069;28;20306;-63
2020/12/10 05:56:56;;;;;;;18.23;16.50;;;33.10;50.00;;;;;;5011049;28;20235;-56
2020/12/10 05:59:27;;;;;;;18.00;16.30;;;33.00;49.40;;;;;;5011972;28;20251;-60
2020/12/10 06:01:58;;;;;;;16.15;14.70;;;33.00;49.50;;;;;;5011205;28;20243;-60
2020/12/10 06:04:29;;;;;;;23.25;17.92;;;33.00;49.50;;;;;;5004600;28;20239;-59
2020/12/10 06:07:00;;;;;;;17.15;15.55;;;33.10;49.30;;;;;;5014695;28;20266;-59
2020/12/10 06:09:31;;;;;;;19.70;16.65;;;33.10;49.40;;;;;;5011107;28;20250;-60
2020/12/10 06:12:04;;;;;;;23.35;20.35;;;33.10;49.40;;;;;;5007767;28;20237;-60
2020/12/10 06:14:34;;;;;;;18.48;16.77;;;33.20;49.50;;;;;;5010945;28;20309;-60
2020/12/10 06:17:08;;;;;;;19.17;17.27;;;33.10;49.10;;;;;;5007457;28;20223;-61
2020/12/10 06:19:39;;;;;;;18.58;16.77;;;33.20;48.90;;;;;;5009704;28;20278;-60
2020/12/10 06:22:26;;;;;;;16.52;15.02;;;33.10;49.30;;;;;;5009766;28;20235;-61
2020/12/10 06:24:57;;;;;;;19.75;17.98;;;33.10;48.70;;;;;;5010745;28;20242;-62
2020/12/10 06:27:30;;;;;;;20.33;18.23;;;33.10;48.60;;;;;;5009735;28;20242;-61
2020/12/10 06:30:13;;;;;;;17.60;15.82;;;33.20;49.40;;;;;;5009599;28;20553;-62
2020/12/10 06:32:45;;;;;;;17.20;15.40;;;33.20;49.00;;;;;;5009522;28;20215;-57
2020/12/10 06:35:29;;;;;;;18.95;17.13;;;33.20;49.30;;;;;;5005751;28;20322;-63
2020/12/10 06:38:00;;;;;;;19.17;17.17;;;33.20;48.70;;;;;;5001447;28;20595;-62
2020/12/10 06:40:40;;;;;;;19.20;17.45;;;33.20;49.30;;;;;;5002072;28;20231;-63
2020/12/10 06:43:12;;;;;;;17.90;16.17;;;33.20;49.30;;;;;;5010944;28;20238;-62
2020/12/10 06:45:43;;;;;;;18.15;16.30;;;33.20;49.40;;;;;;5011132;28;20281;-62
2020/12/10 06:48:15;;;;;;;20.17;18.27;;;33.20;49.70;;;;;;5011200;28;20243;-62
2020/12/10 06:50:46;;;;;;;20.02;18.05;;;33.20;49.50;;;;;;4968578;28;20236;-63
2020/12/10 06:53:17;;;;;;;18.70;17.00;;;33.20;50.20;;;;;;4969910;28;20244;-62
2020/12/10 06:56:07;;;;;;;18.75;16.75;;;33.20;49.70;;;;;;4970322;28;20664;-63
2020/12/10 06:58:54;;;;;;;18.45;16.63;;;33.20;50.30;;;;;;4944947;28;20237;-63
2020/12/10 07:01:31;;;;;;;18.35;16.65;;;33.20;50.20;;;;;;4952521;28;20228;-62
2020/12/10 07:04:22;;;;;;;18.65;16.90;;;33.30;49.30;;;;;;4968458;28;20236;-62
2020/12/10 07:07:14;;;;;;;18.10;16.10;;;33.30;49.40;;;;;;4957246;28;20870;-62
2020/12/10 07:09:51;;;;;;;19.90;17.80;;;33.30;49.20;;;;;;4969573;28;20243;-62
2020/12/10 07:12:22;;;;;;;17.48;15.88;;;33.20;49.10;;;;;;4968509;28;20240;-62
2020/12/10 07:15:10;;;;;;;20.25;18.17;;;33.20;49.10;;;;;;4968264;28;20232;-62
2020/12/10 07:17:40;;;;;;;18.45;16.63;;;33.20;49.10;;;;;;4968571;28;20331;-62
2020/12/10 07:20:12;;;;;;;18.70;16.77;;;33.20;49.20;;;;;;4969396;28;20619;-62
2020/12/10 07:22:42;;;;;;;17.67;15.93;;;33.20;49.70;;;;;;5004760;28;20266;-62
2020/12/10 07:25:13;;;;;;;19.85;17.77;;;33.20;49.50;;;;;;5009622;28;20292;-62
2020/12/10 07:27:44;;;;;;;18.63;16.83;;;33.20;49.70;;;;;;5010430;28;20822;-62
2020/12/10 07:30:16;;;;;;;17.83;16.02;;;33.20;49.90;;;;;;5010363;28;20258;-62
2020/12/10 07:32:47;;;;;;;18.58;16.88;;;33.30;49.50;;;;;;5009274;28;20227;-62
2020/12/10 07:35:19;;;;;;;18.25;16.35;;;33.30;49.20;;;;;;5009281;28;20230;-62
2020/12/10 07:37:50;;;;;;;18.33;16.42;;;33.30;48.50;;;;;;4948593;28;20241;-62
2020/12/10 07:40:21;;;;;;;17.77;16.08;;;33.30;47.90;;;;;;4949808;28;20232;-62
2020/12/10 07:42:51;;;;;;;17.17;15.60;;;33.30;48.20;;;;;;4948930;28;20263;-62
2020/12/10 07:45:23;;;;;;;18.30;16.48;;;33.30;48.30;;;;;;4949915;28;20354;-62
2020/12/10 07:47:57;;;;;;;17.40;15.35;;;33.30;48.60;;;;;;4949769;28;20728;-62
2020/12/10 07:50:27;;;;;;;19.02;17.23;;;33.30;48.60;;;;;;4949530;28;20264;-62
2020/12/10 07:52:59;;;;;;;18.67;16.77;;;33.20;48.40;;;;;;4950294;28;20259;-61
2020/12/10 07:55:30;;;;;;;17.15;15.55;;;33.20;48.70;;;;;;4950914;28;20233;-62
2020/12/10 07:58:07;;;;;;;15.60;14.10;;;33.20;48.00;;;;;;4951238;28;20302;-62
2020/12/10 08:00:39;;;;;;;17.70;16.00;;;33.20;48.20;;;;;;4951222;28;20808;-63
2020/12/10 08:03:20;;;;;;;19.17;17.27;;;33.20;48.30;;;;;;4999235;28;20285;-62
2020/12/10 08:06:05;;;;;;;17.98;16.27;;;33.20;48.30;;;;;;5005385;28;20227;-62
2020/12/10 08:08:37;;;;;;;16.83;15.23;;;33.20;48.30;;;;;;5011378;28;20678;-63
2020/12/10 08:11:12;;;;;;;18.55;16.75;;;33.20;48.60;;;;;;5011521;28;20246;-63
2020/12/10 08:14:08;;;;;;;19.27;17.40;;;33.20;48.40;;;;;;4991767;28;20382;-62
2020/12/10 08:16:43;;;;;;;18.80;17.00;;;33.30;48.40;;;;;;4978597;28;20232;-62
2020/12/10 08:19:17;;;;;;;20.55;18.50;;;33.30;48.80;;;;;;5007020;28;20234;-62
2020/12/10 08:21:48;;;;;;;21.38;19.15;;;33.30;49.50;;;;;;5010455;28;20242;-63
2020/12/10 08:24:38;;;;;;;19.20;17.20;;;33.30;49.10;;;;;;5010375;28;20281;-62
2020/12/10 08:27:11;;;;;;;19.13;17.45;;;33.40;48.70;;;;;;5011928;28;20636;-62
2020/12/10 08:29:41;;;;;;;17.83;16.23;;;33.40;48.30;;;;;;4992176;28;20694;-62
2020/12/10 08:32:14;;;;;;;17.15;15.32;;;33.40;47.90;;;;;;4954860;28;20276;-62
2020/12/10 08:34:47;;;;;;;19.50;17.63;;;33.40;48.30;;;;;;4954163;28;22561;-62
2020/12/10 08:37:18;;;;;;;22.75;20.50;;;33.50;48.30;;;;;;4953947;28;20229;-62
2020/12/10 08:39:49;;;;;;;21.13;19.13;;;33.40;48.90;;;;;;4953242;28;20344;-63
2020/12/10 08:42:25;;;;;;;19.17;17.48;;;33.40;49.30;;;;;;4859088;29;20246;-62
2020/12/10 08:44:56;;;;;;;21.42;19.20;;;33.40;49.40;;;;;;4858120;29;20277;-62
2020/12/10 08:47:38;;;;;;;20.42;18.48;;;33.40;49.60;;;;;;4841190;29;20255;-62
2020/12/10 08:50:26;;;;;;;22.65;20.45;;;33.40;50.00;;;;;;4840047;29;20249;-62
2020/12/10 08:53:09;;;;;;;18.95;17.25;;;33.40;50.40;;;;;;4841015;29;20706;-63
2020/12/10 08:55:44;;;;;;;23.27;20.92;;;33.40;50.60;;;;;;4846078;29;20717;-62
2020/12/10 08:58:19;;;;;;;22.38;20.38;;;33.40;51.40;;;;;;4839997;29;20237;-62
2020/12/10 09:00:53;;;;;;;21.48;19.42;;;33.40;50.90;;;;;;4840706;29;20296;-62
2020/12/10 09:03:26;;;;;;;21.73;19.23;;;33.40;50.40;;;;;;4872172;29;20346;-62
2020/12/10 09:05:57;;;;;;;21.25;18.98;;;33.40;50.30;;;;;;4895902;29;20322;-62
2020/12/10 09:08:27;;;;;;;22.02;20.02;;;33.30;50.10;;;;;;4932325;29;20245;-62
2020/12/10 09:10:58;;;;;;;21.92;19.73;;;33.30;50.20;;;;;;4928703;29;20233;-63
2020/12/10 09:13:29;;;;;;;21.27;19.15;;;33.30;50.00;;;;;;4958220;28;20235;-63
2020/12/10 09:15:59;;;;;;;20.67;18.67;;;33.30;49.80;;;;;;5016484;28;20230;-62
2020/12/10 09:18:31;;;;;;;19.42;17.38;;;33.30;49.90;;;;;;5006079;28;20238;-63
2020/12/10 09:21:04;;;;;;;19.77;17.88;;;33.20;50.40;;;;;;5013230;28;20230;-63
2020/12/10 09:23:43;;;;;;;21.55;19.35;;;33.30;50.10;;;;;;5012011;28;20317;-63
2020/12/10 09:26:13;;;;;;;18.70;17.00;;;33.30;49.80;;;;;;5013423;28;20314;-62
2020/12/10 09:28:44;;;;;;;22.75;20.65;;;33.30;49.90;;;;;;5010399;28;20602;-62
2020/12/10 09:31:15;;;;;;;20.20;18.23;;;33.30;50.40;;;;;;5011543;28;20227;-62
2020/12/10 09:33:47;;;;;;;18.25;16.48;;;33.30;50.80;;;;;;4975405;28;20707;-62
2020/12/10 09:36:17;;;;;;;19.27;17.38;;;33.40;51.10;;;;;;4970991;28;20240;-63
2020/12/10 09:38:48;;;;;;;20.30;18.20;;;33.50;50.50;;;;;;4968063;28;20236;-64
2020/12/10 09:41:22;;;;;;;19.60;17.83;;;33.50;50.10;;;;;;4970784;28;20239;-63
2020/12/10 09:43:52;;;;;;;21.58;19.40;;;33.60;49.70;;;;;;4972231;28;20735;-63
2020/12/10 09:46:23;;;;;;;20.45;18.30;;;33.70;49.40;;;;;;4972683;28;20233;-63
2020/12/10 09:48:55;;;;;;;19.20;17.40;;;33.80;49.30;;;;;;4971044;28;20276;-63
2020/12/10 09:51:26;;;;;;;19.35;17.35;;;33.80;49.10;;;;;;4973285;28;20275;-63
2020/12/10 09:54:03;;;;;;;18.25;16.65;;;33.80;49.40;;;;;;4973263;28;20290;-63
2020/12/10 09:56:42;;;;;;;22.88;20.67;;;33.80;49.40;;;;;;4970551;28;20228;-63
2020/12/10 09:59:15;;;;;;;18.65;16.88;;;33.80;49.80;;;;;;5008467;28;20706;-63
2020/12/10 10:01:47;;;;;;;19.73;17.77;;;33.70;50.00;;;;;;5013825;28;20238;-63
2020/12/10 10:04:19;;;;;;;19.90;17.90;;;33.70;49.80;;;;;;5014815;28;20707;-63
2020/12/10 10:06:50;;;;;;;18.77;16.88;;;33.70;49.60;;;;;;5013308;28;20329;-63
2020/12/10 10:09:21;;;;;;;16.92;15.25;;;33.70;49.80;;;;;;5003868;28;20238;-63
2020/12/10 10:11:52;;;;;;;17.98;16.33;;;33.70;50.10;;;;;;5013388;28;20227;-63
2020/12/10 10:14:22;;;;;;;17.52;15.80;;;33.80;50.00;;;;;;5013510;28;20227;-63
2020/12/10 10:16:54;;;;;;;16.90;15.30;;;34.00;49.80;;;;;;5013408;28;20241;-63
2020/12/10 10:19:25;;;;;;;16.73;15.23;;;34.20;49.80;;;;;;5012983;28;20235;-63
2020/12/10 10:21:58;;;;;;;17.10;15.48;;;34.30;49.60;;;;;;5014730;28;20239;-63
2020/12/10 10:24:29;;;;;;;17.95;16.05;;;34.50;49.50;;;;;;5013076;28;20253;-64
2020/12/10 10:27:00;;;;;;;17.90;16.02;;;34.60;49.30;;;;;;5013544;28;20239;-63
2020/12/10 10:29:31;;;;;;;17.40;15.60;;;34.70;48.90;;;;;;5009726;28;20671;-62
2020/12/10 10:32:01;;;;;;;16.23;14.63;;;34.70;48.80;;;;;;5004224;28;20254;-61
2020/12/10 10:34:33;;;;;;;16.58;14.98;;;34.80;48.70;;;;;;5013249;28;20231;-62
2020/12/10 10:37:04;;;;;;;17.58;15.88;;;34.80;48.50;;;;;;5011756;28;20234;-59
2020/12/10 10:39:35;;;;;;;17.38;15.77;;;34.70;48.50;;;;;;5001993;28;20223;-59
2020/12/10 10:42:06;;;;;;;18.48;16.67;;;34.60;48.50;;;;;;5009460;28;20804;-60
2020/12/10 10:44:36;;;;;;;17.00;15.40;;;34.50;48.60;;;;;;4951273;28;20233;-59
2020/12/10 10:47:07;;;;;;;16.13;14.70;;;34.30;48.80;;;;;;4951245;28;20245;-60
2020/12/10 10:49:39;;;;;;;17.83;16.02;;;34.20;49.00;;;;;;4951656;28;20234;-60
2020/12/10 10:52:09;;;;;;;18.00;16.33;;;34.00;49.30;;;;;;4949978;28;20233;-59
2020/12/10 10:54:40;;;;;;;18.85;17.05;;;33.80;49.50;;;;;;4950879;28;20260;-59
2020/12/10 10:57:11;;;;;;;19.13;17.23;;;33.60;49.70;;;;;;4951451;28;20760;-60
2020/12/10 10:59:42;;;;;;;18.33;16.58;;;33.50;50.20;;;;;;4950531;28;20232;-60
2020/12/10 11:02:13;;;;;;;18.10;16.48;;;33.30;50.60;;;;;;4951761;28;20233;-60
2020/12/10 11:04:45;;;;;;;18.65;16.75;;;33.20;51.00;;;;;;4950969;28;20252;-59
2020/12/10 11:07:16;;;;;;;18.35;16.55;;;33.00;51.40;;;;;;4951725;28;20264;-59
2020/12/10 11:09:46;;;;;;;18.27;16.48;;;32.90;51.70;;;;;;4949896;28;20418;-58
2020/12/10 11:12:17;;;;;;;18.20;16.40;;;32.80;52.00;;;;;;4942202;28;20283;-58
2020/12/10 11:14:47;;;;;;;19.77;17.90;;;32.70;52.20;;;;;;4941980;28;20239;-59
2020/12/10 11:17:18;;;;;;;19.48;17.58;;;32.50;52.40;;;;;;5008386;28;20227;-60
2020/12/10 11:19:50;;;;;;;19.65;17.77;;;32.40;52.70;;;;;;5007475;28;20235;-60
2020/12/10 11:22:21;;;;;;;18.45;16.55;;;32.40;52.90;;;;;;5005944;28;20324;-60
2020/12/10 11:24:52;;;;;;;19.55;17.65;;;32.30;53.10;;;;;;4993527;28;21054;-60
2020/12/10 11:27:23;;;;;;;21.55;19.40;;;32.20;53.30;;;;;;5010276;28;20281;-59
2020/12/10 11:29:54;;;;;;;21.65;19.33;;;32.20;53.60;;;;;;5010413;28;20239;-60
2020/12/10 11:32:24;;;;;;;22.23;20.00;;;32.00;53.70;;;;;;5002850;28;20252;-60
2020/12/10 11:34:57;;;;;;;22.73;20.52;;;32.00;53.90;;;;;;5009050;28;20235;-60
2020/12/10 11:37:30;;;;;;;21.92;19.88;;;31.90;54.00;;;;;;5011577;28;20682;-60
2020/12/10 11:40:01;;;;;;;24.50;21.92;;;31.90;54.30;;;;;;5009556;28;20262;-60
2020/12/10 11:42:32;;;;;;;23.92;21.40;;;31.80;54.40;;;;;;5010866;28;20227;-60
2020/12/10 11:45:04;;;;;;;23.27;20.85;;;31.70;54.50;;;;;;5007811;28;20572;-60
2020/12/10 11:47:34;;;;;;;22.33;19.95;;;31.70;54.60;;;;;;5002325;28;20231;-59
2020/12/10 11:50:06;;;;;;;24.50;21.75;;;31.60;54.70;;;;;;5010678;28;20235;-59
2020/12/10 11:52:37;;;;;;;24.23;21.75;;;31.60;55.00;;;;;;5009797;28;20318;-59
2020/12/10 11:55:08;;;;;;;26.30;22.52;;;31.60;55.20;;;;;;5011703;28;20261;-58
2020/12/10 11:57:38;;;;;;;23.85;21.42;;;31.50;55.20;;;;;;5025923;28;20811;-60
2020/12/10 12:00:09;;;;;;;22.45;20.27;;;31.50;55.30;;;;;;5031196;28;20772;-59
2020/12/10 12:02:40;;;;;;;21.48;19.42;;;31.40;55.50;;;;;;4996652;28;20223;-61
2020/12/10 12:05:12;;;;;;;20.08;17.63;;;31.40;55.60;;;;;;5010789;28;20303;-60
2020/12/10 12:07:44;;;;;;;24.05;21.52;;;31.40;55.90;;;;;;5010425;28;20231;-57
2020/12/10 12:10:15;;;;;;;26.42;23.70;;;31.40;55.90;;;;;;5011133;28;20241;-59
2020/12/10 12:12:45;;;;;;;30.20;26.98;;;31.30;56.00;;;;;;5011069;28;20245;-61
2020/12/10 12:15:16;;;;;;;31.85;28.63;;;31.30;56.10;;;;;;5026853;28;20245;-61
2020/12/10 12:17:47;;;;;;;30.77;27.58;;;31.30;56.20;;;;;;5008767;28;20223;-61
2020/12/10 12:20:18;;;;;;;32.38;28.75;;;31.30;56.30;;;;;;5005994;28;20326;-61
2020/12/10 12:22:49;;;;;;;28.55;25.73;;;31.20;56.50;;;;;;5009825;28;20227;-61
2020/12/10 12:25:19;;;;;;;29.42;26.30;;;31.20;56.40;;;;;;5010330;28;20698;-60
2020/12/10 12:27:50;;;;;;;26.55;23.90;;;31.20;56.60;;;;;;5010527;28;20228;-61
2020/12/10 12:30:21;;;;;;;25.42;22.83;;;31.10;56.80;;;;;;5007488;28;20258;-60
2020/12/10 12:32:51;;;;;;;25.20;22.90;;;31.10;56.90;;;;;;5006979;28;20241;-61
2020/12/10 12:35:23;;;;;;;27.95;24.98;;;31.10;57.10;;;;;;4999898;28;20227;-60
2020/12/10 12:37:54;;;;;;;25.27;22.45;;;31.10;57.20;;;;;;5009657;28;20235;-60
2020/12/10 12:40:25;;;;;;;24.75;22.38;;;31.10;57.30;;;;;;5010004;28;20235;-60
2020/12/10 12:42:57;;;;;;;24.60;21.98;;;31.10;57.30;;;;;;5007600;28;20237;-60
2020/12/10 12:45:27;;;;;;;24.20;21.77;;;31.00;57.30;;;;;;5009827;28;20231;-61
2020/12/10 12:47:59;;;;;;;27.17;24.48;;;31.00;57.40;;;;;;5007906;28;20228;-60
2020/12/10 12:50:30;;;;;;;30.52;27.38;;;31.00;57.50;;;;;;5007972;28;20235;-60
2020/12/10 12:53:01;;;;;;;29.98;26.85;;;31.00;57.40;;;;;;5009309;28;20234;-59